PWSweather.com
Personal Weather Stations
Station Observations
KM01CL
Kitemaniak 01, Castiglione Del LagoIT 06061

Kitemaniak 01Castiglione Del LagoIT 06061

Lat: 43.133808, Lon: 12.045753

Elevation: 997

Station Type: Ventus W831

High Low Average
Temperature 41.7°F5.4°C 29.8°F-1.2°C 34.8°F1.6°C
Dew Point 36.0°F2.2°C 25.9°F-3.4°C 30.2°F-1.0°C
Winds 3.8 mph 6.1 kmh Calm Calm 1.0 mph SW1.6 kmh SW
Wind Gusts 4.5 mph7.2 kmh -- 1.0 mph1.6 kmh
Humidity 85% 79% 83%
Pressure 30.37 in1028.4 mb 30.27 in1025.1 mb -
Precipitation 0.00 in0.0 mm - -
Hour Temp Dew Point Humidity Winds Wind Gusts Pressure Precip Precip Rate Daily Precip Total
04:02 PM 41.7°F5.4°C 35.7°F2.1°C 79% 0.7 mph E1.1 kmh E 0.7 mph1.1 kmh 30.27 in1025.1 mb 0.00 in0.0 mm 0.00 in0.0 mm 0.00 in0.0 mm
04:04 PM 41.7°F5.4°C 35.7°F2.1°C 79% 0.7 mph E1.1 kmh E 0.7 mph1.1 kmh 30.27 in1025.1 mb 0.00 in0.0 mm 0.00 in0.0 mm 0.00 in0.0 mm
04:06 PM 41.7°F5.4°C 35.7°F2.1°C 79% 0.7 mph E1.1 kmh E 0.7 mph1.1 kmh 30.27 in1025.1 mb 0.00 in0.0 mm 0.00 in0.0 mm 0.00 in0.0 mm
04:08 PM 41.7°F5.4°C 36.0°F2.2°C 80% 0.7 mph E1.1 kmh E 1.6 mph2.6 kmh 30.27 in1025.1 mb 0.00 in0.0 mm 0.00 in0.0 mm 0.00 in0.0 mm
04:10 PM 41.5°F5.3°C 35.8°F2.1°C 80% Calm Calm 0.7 mph1.1 kmh 30.27 in1025.1 mb 0.00 in0.0 mm 0.00 in0.0 mm 0.00 in0.0 mm
04:12 PM 41.5°F5.3°C 35.8°F2.1°C 80% Calm Calm 0.7 mph1.1 kmh 30.27 in1025.1 mb 0.00 in0.0 mm 0.00 in0.0 mm 0.00 in0.0 mm
04:14 PM 41.4°F5.2°C 35.7°F2.1°C 80% Calm Calm -- 30.28 in1025.4 mb 0.00 in0.0 mm 0.00 in0.0 mm 0.00 in0.0 mm
04:16 PM 41.4°F5.2°C 35.7°F2.1°C 80% 0.7 mph E1.1 kmh E 1.6 mph2.6 kmh 30.28 in1025.4 mb 0.00 in0.0 mm 0.00 in0.0 mm 0.00 in0.0 mm
04:18 PM 41.2°F5.1°C 35.2°F1.8°C 79% 0.7 mph E1.1 kmh E 1.6 mph2.6 kmh 30.28 in1025.4 mb 0.00 in0.0 mm 0.00 in0.0 mm 0.00 in0.0 mm
04:20 PM 41.2°F5.1°C 35.2°F1.8°C 79% 0.7 mph E1.1 kmh E 1.6 mph2.6 kmh 30.28 in1025.4 mb 0.00 in0.0 mm 0.00 in0.0 mm 0.00 in0.0 mm
04:22 PM 41.0°F5.0°C 35.0°F1.7°C 79% 0.7 mph E1.1 kmh E 1.6 mph2.6 kmh 30.28 in1025.4 mb 0.00 in0.0 mm 0.00 in0.0 mm 0.00 in0.0 mm
04:24 PM 40.8°F4.9°C 34.8°F1.6°C 79% 0.7 mph E1.1 kmh E 1.6 mph2.6 kmh 30.28 in1025.4 mb 0.00 in0.0 mm 0.00 in0.0 mm 0.00 in0.0 mm
04:26 PM 40.6°F4.8°C 34.7°F1.5°C 79% 0.7 mph E1.1 kmh E 1.6 mph2.6 kmh 30.27 in1025.1 mb 0.00 in0.0 mm 0.00 in0.0 mm 0.00 in0.0 mm
04:28 PM 40.6°F4.8°C 34.7°F1.5°C 79% 0.7 mph E1.1 kmh E 1.6 mph2.6 kmh 30.27 in1025.1 mb 0.00 in0.0 mm 0.00 in0.0 mm 0.00 in0.0 mm
04:30 PM 40.6°F4.8°C 34.7°F1.5°C 79% 0.7 mph E1.1 kmh E 0.7 mph1.1 kmh 30.28 in1025.4 mb 0.00 in0.0 mm 0.00 in0.0 mm 0.00 in0.0 mm
04:32 PM 40.6°F4.8°C 35.0°F1.7°C 80% 0.7 mph E1.1 kmh E 0.7 mph1.1 kmh 30.28 in1025.4 mb 0.00 in0.0 mm 0.00 in0.0 mm 0.00 in0.0 mm
04:34 PM 40.6°F4.8°C 35.0°F1.7°C 80% 0.7 mph E1.1 kmh E 1.6 mph2.6 kmh 30.28 in1025.4 mb 0.00 in0.0 mm 0.00 in0.0 mm 0.00 in0.0 mm
04:36 PM 40.6°F4.8°C 35.0°F1.7°C 80% 0.7 mph E1.1 kmh E 0.7 mph1.1 kmh 30.27 in1025.1 mb 0.00 in0.0 mm 0.00 in0.0 mm 0.00 in0.0 mm
04:38 PM 40.5°F4.7°C 34.8°F1.6°C 80% Calm Calm 0.7 mph1.1 kmh 30.27 in1025.1 mb 0.00 in0.0 mm 0.00 in0.0 mm 0.00 in0.0 mm
04:40 PM 40.5°F4.7°C 34.8°F1.6°C 80% Calm Calm -- 30.28 in1025.4 mb 0.00 in0.0 mm 0.00 in0.0 mm 0.00 in0.0 mm
04:42 PM 40.3°F4.6°C 34.6°F1.4°C 80% 0.7 mph E1.1 kmh E 1.6 mph2.6 kmh 30.28 in1025.4 mb 0.00 in0.0 mm 0.00 in0.0 mm 0.00 in0.0 mm
04:44 PM 40.1°F4.5°C 34.4°F1.3°C 80% 1.6 mph E2.6 kmh E 1.6 mph2.6 kmh 30.28 in1025.4 mb 0.00 in0.0 mm 0.00 in0.0 mm 0.00 in0.0 mm
04:46 PM 39.7°F4.3°C 34.1°F1.2°C 80% 1.6 mph E2.6 kmh E 2.2 mph3.5 kmh 30.28 in1025.4 mb 0.00 in0.0 mm 0.00 in0.0 mm 0.00 in0.0 mm
04:48 PM 39.6°F4.2°C 33.9°F1.1°C 80% 1.6 mph E2.6 kmh E 2.2 mph3.5 kmh 30.28 in1025.4 mb 0.00 in0.0 mm 0.00 in0.0 mm 0.00 in0.0 mm
04:50 PM 39.2°F4.0°C 33.6°F0.9°C 80% 0.7 mph E1.1 kmh E 1.6 mph2.6 kmh 30.28 in1025.4 mb 0.00 in0.0 mm 0.00 in0.0 mm 0.00 in0.0 mm
04:52 PM 39.2°F4.0°C 33.6°F0.9°C 80% 0.7 mph E1.1 kmh E 1.6 mph2.6 kmh 30.28 in1025.4 mb 0.00 in0.0 mm 0.00 in0.0 mm 0.00 in0.0 mm
04:54 PM 39.0°F3.9°C 33.4°F0.8°C 80% 0.7 mph E1.1 kmh E 1.6 mph2.6 kmh 30.28 in1025.4 mb 0.00 in0.0 mm 0.00 in0.0 mm 0.00 in0.0 mm
04:56 PM 39.0°F3.9°C 33.4°F0.8°C 80% 0.7 mph E1.1 kmh E 1.6 mph2.6 kmh 30.28 in1025.4 mb 0.00 in0.0 mm 0.00 in0.0 mm 0.00 in0.0 mm
04:58 PM 39.0°F3.9°C 33.4°F0.8°C 80% 0.7 mph E1.1 kmh E 1.6 mph2.6 kmh 30.28 in1025.4 mb 0.00 in0.0 mm 0.00 in0.0 mm 0.00 in0.0 mm
05:00 PM 39.0°F3.9°C 33.4°F0.8°C 80% 0.7 mph E1.1 kmh E 1.6 mph2.6 kmh 30.28 in1025.4 mb 0.00 in0.0 mm 0.00 in0.0 mm 0.00 in0.0 mm
05:02 PM 39.0°F3.9°C 33.4°F0.8°C 80% 0.7 mph E1.1 kmh E 1.6 mph2.6 kmh 30.28 in1025.4 mb 0.00 in0.0 mm 0.00 in0.0 mm 0.00 in0.0 mm
05:04 PM 39.0°F3.9°C 33.4°F0.8°C 80% Calm Calm 0.7 mph1.1 kmh 30.28 in1025.4 mb 0.00 in0.0 mm 0.00 in0.0 mm 0.00 in0.0 mm
05:06 PM 39.0°F3.9°C 33.7°F0.9°C 81% Calm Calm -- 30.28 in1025.4 mb 0.00 in0.0 mm 0.00 in0.0 mm 0.00 in0.0 mm
05:08 PM 39.0°F3.9°C 33.7°F0.9°C 81% Calm Calm -- 30.27 in1025.1 mb 0.00 in0.0 mm 0.00 in0.0 mm 0.00 in0.0 mm
05:10 PM 38.8°F3.8°C 33.5°F0.8°C 81% Calm Calm 0.7 mph1.1 kmh 30.28 in1025.4 mb 0.00 in0.0 mm 0.00 in0.0 mm 0.00 in0.0 mm
05:12 PM 38.7°F3.7°C 33.3°F0.7°C 81% Calm Calm 0.7 mph1.1 kmh 30.28 in1025.4 mb 0.00 in0.0 mm 0.00 in0.0 mm 0.00 in0.0 mm
05:14 PM 38.5°F3.6°C 33.2°F0.7°C 81% 0.7 mph E1.1 kmh E 0.7 mph1.1 kmh 30.28 in1025.4 mb 0.00 in0.0 mm 0.00 in0.0 mm 0.00 in0.0 mm
05:16 PM 38.5°F3.6°C 33.2°F0.7°C 81% 0.7 mph E1.1 kmh E 1.6 mph2.6 kmh 30.28 in1025.4 mb 0.00 in0.0 mm 0.00 in0.0 mm 0.00 in0.0 mm
05:18 PM 38.5°F3.6°C 33.2°F0.7°C 81% 0.7 mph E1.1 kmh E 0.7 mph1.1 kmh 30.28 in1025.4 mb 0.00 in0.0 mm 0.00 in0.0 mm 0.00 in0.0 mm
05:20 PM 38.5°F3.6°C 33.2°F0.7°C 81% 0.7 mph E1.1 kmh E 1.6 mph2.6 kmh 30.28 in1025.4 mb 0.00 in0.0 mm 0.00 in0.0 mm 0.00 in0.0 mm
05:22 PM 38.7°F3.7°C 33.3°F0.7°C 81% Calm Calm -- 30.28 in1025.4 mb 0.00 in0.0 mm 0.00 in0.0 mm 0.00 in0.0 mm
05:25 PM 38.5°F3.6°C 33.2°F0.7°C 81% Calm Calm -- 30.28 in1025.4 mb 0.00 in0.0 mm 0.00 in0.0 mm 0.00 in0.0 mm
05:27 PM 38.3°F3.5°C 33.0°F0.6°C 81% 0.7 mph E1.1 kmh E 1.6 mph2.6 kmh 30.29 in1025.7 mb 0.00 in0.0 mm 0.00 in0.0 mm 0.00 in0.0 mm
05:29 PM 38.1°F3.4°C 32.8°F0.4°C 81% 0.7 mph E1.1 kmh E 0.7 mph1.1 kmh 30.28 in1025.4 mb 0.00 in0.0 mm 0.00 in0.0 mm 0.00 in0.0 mm
05:31 PM 37.8°F3.2°C 32.5°F0.3°C 81% 0.7 mph E1.1 kmh E 0.7 mph1.1 kmh 30.29 in1025.7 mb 0.00 in0.0 mm 0.00 in0.0 mm 0.00 in0.0 mm
05:33 PM 37.6°F3.1°C 32.3°F0.2°C 81% 0.7 mph E1.1 kmh E 1.6 mph2.6 kmh 30.29 in1025.7 mb 0.00 in0.0 mm 0.00 in0.0 mm 0.00 in0.0 mm
05:35 PM 37.4°F3.0°C 32.1°F0.1°C 81% 0.7 mph E1.1 kmh E 1.6 mph2.6 kmh 30.29 in1025.7 mb 0.00 in0.0 mm 0.00 in0.0 mm 0.00 in0.0 mm
05:37 PM 37.4°F3.0°C 32.1°F0.1°C 81% 0.7 mph E1.1 kmh E 1.6 mph2.6 kmh 30.29 in1025.7 mb 0.00 in0.0 mm 0.00 in0.0 mm 0.00 in0.0 mm
05:39 PM 37.2°F2.9°C 31.9°F-0.1°C 81% 0.7 mph E1.1 kmh E 1.6 mph2.6 kmh 30.29 in1025.7 mb 0.00 in0.0 mm 0.00 in0.0 mm 0.00 in0.0 mm
05:41 PM 37.2°F2.9°C 31.9°F-0.1°C 81% 0.7 mph E1.1 kmh E 1.6 mph2.6 kmh 30.29 in1025.7 mb 0.00 in0.0 mm 0.00 in0.0 mm 0.00 in0.0 mm
05:43 PM 37.2°F2.9°C 31.9°F-0.1°C 81% Calm Calm 0.7 mph1.1 kmh 30.29 in1025.7 mb 0.00 in0.0 mm 0.00 in0.0 mm 0.00 in0.0 mm
05:45 PM 37.4°F3.0°C 32.1°F0.1°C 81% 0.7 mph E1.1 kmh E 1.6 mph2.6 kmh 30.29 in1025.7 mb 0.00 in0.0 mm 0.00 in0.0 mm 0.00 in0.0 mm
05:47 PM 37.6°F3.1°C 32.3°F0.2°C 81% 0.7 mph E1.1 kmh E 0.7 mph1.1 kmh 30.29 in1025.7 mb 0.00 in0.0 mm 0.00 in0.0 mm 0.00 in0.0 mm
05:49 PM 37.6°F3.1°C 32.3°F0.2°C 81% 0.7 mph E1.1 kmh E 1.6 mph2.6 kmh 30.28 in1025.4 mb 0.00 in0.0 mm 0.00 in0.0 mm 0.00 in0.0 mm
05:51 PM 37.6°F3.1°C 32.6°F0.3°C 82% 1.6 mph E2.6 kmh E 1.6 mph2.6 kmh 30.28 in1025.4 mb 0.00 in0.0 mm 0.00 in0.0 mm 0.00 in0.0 mm
05:53 PM 37.6°F3.1°C 32.6°F0.3°C 82% 1.6 mph E2.6 kmh E 2.2 mph3.5 kmh 30.29 in1025.7 mb 0.00 in0.0 mm 0.00 in0.0 mm 0.00 in0.0 mm
05:55 PM 37.2°F2.9°C 32.2°F0.1°C 82% 0.7 mph E1.1 kmh E 1.6 mph2.6 kmh 30.29 in1025.7 mb 0.00 in0.0 mm 0.00 in0.0 mm 0.00 in0.0 mm
05:57 PM 37.2°F2.9°C 31.9°F-0.1°C 81% 0.7 mph E1.1 kmh E 1.6 mph2.6 kmh 30.29 in1025.7 mb 0.00 in0.0 mm 0.00 in0.0 mm 0.00 in0.0 mm
05:59 PM 37.0°F2.8°C 31.8°F-0.1°C 81% 0.7 mph E1.1 kmh E 1.6 mph2.6 kmh 30.29 in1025.7 mb 0.00 in0.0 mm 0.00 in0.0 mm 0.00 in0.0 mm
06:01 PM 37.2°F2.9°C 32.2°F0.1°C 82% 0.7 mph E1.1 kmh E 1.6 mph2.6 kmh 30.28 in1025.4 mb 0.00 in0.0 mm 0.00 in0.0 mm 0.00 in0.0 mm
06:03 PM 37.2°F2.9°C 32.2°F0.1°C 82% 0.7 mph E1.1 kmh E 1.6 mph2.6 kmh 30.29 in1025.7 mb 0.00 in0.0 mm 0.00 in0.0 mm 0.00 in0.0 mm
06:05 PM 37.4°F3.0°C 32.4°F0.2°C 82% Calm Calm 0.7 mph1.1 kmh 30.29 in1025.7 mb 0.00 in0.0 mm 0.00 in0.0 mm 0.00 in0.0 mm
06:07 PM 37.6°F3.1°C 32.6°F0.3°C 82% Calm Calm 0.7 mph1.1 kmh 30.29 in1025.7 mb 0.00 in0.0 mm 0.00 in0.0 mm 0.00 in0.0 mm
06:09 PM 37.6°F3.1°C 32.6°F0.3°C 82% Calm Calm 0.7 mph1.1 kmh 30.29 in1025.7 mb 0.00 in0.0 mm 0.00 in0.0 mm 0.00 in0.0 mm
06:11 PM 37.6°F3.1°C 32.6°F0.3°C 82% 0.7 mph E1.1 kmh E 0.7 mph1.1 kmh 30.29 in1025.7 mb 0.00 in0.0 mm 0.00 in0.0 mm 0.00 in0.0 mm
06:13 PM 37.6°F3.1°C 32.6°F0.3°C 82% Calm Calm 0.7 mph1.1 kmh 30.30 in1026.1 mb 0.00 in0.0 mm 0.00 in0.0 mm 0.00 in0.0 mm
06:15 PM 37.6°F3.1°C 32.6°F0.3°C 82% Calm Calm 0.7 mph1.1 kmh 30.29 in1025.7 mb 0.00 in0.0 mm 0.00 in0.0 mm 0.00 in0.0 mm
06:17 PM 37.6°F3.1°C 32.6°F0.3°C 82% Calm Calm 0.7 mph1.1 kmh 30.30 in1026.1 mb 0.00 in0.0 mm 0.00 in0.0 mm 0.00 in0.0 mm
06:19 PM 37.6°F3.1°C 32.6°F0.3°C 82% 0.7 mph E1.1 kmh E 1.6 mph2.6 kmh 30.30 in1026.1 mb 0.00 in0.0 mm 0.00 in0.0 mm 0.00 in0.0 mm
06:21 PM 37.6°F3.1°C 32.6°F0.3°C 82% 0.7 mph E1.1 kmh E 1.6 mph2.6 kmh 30.30 in1026.1 mb 0.00 in0.0 mm 0.00 in0.0 mm 0.00 in0.0 mm
06:23 PM 37.6°F3.1°C 32.9°F0.5°C 83% Calm Calm 0.7 mph1.1 kmh 30.30 in1026.1 mb 0.00 in0.0 mm 0.00 in0.0 mm 0.00 in0.0 mm
06:25 PM 37.6°F3.1°C 32.9°F0.5°C 83% 0.7 mph E1.1 kmh E 0.7 mph1.1 kmh 30.29 in1025.7 mb 0.00 in0.0 mm 0.00 in0.0 mm 0.00 in0.0 mm
06:27 PM 37.6°F3.1°C 32.9°F0.5°C 83% 1.6 mph E2.6 kmh E 1.6 mph2.6 kmh 30.30 in1026.1 mb 0.00 in0.0 mm 0.00 in0.0 mm 0.00 in0.0 mm
06:29 PM 37.4°F3.0°C 32.7°F0.4°C 83% 1.6 mph E2.6 kmh E 2.2 mph3.5 kmh 30.29 in1025.7 mb 0.00 in0.0 mm 0.00 in0.0 mm 0.00 in0.0 mm
06:31 PM 37.4°F3.0°C 32.7°F0.4°C 83% 1.6 mph S2.6 kmh S 2.2 mph3.5 kmh 30.30 in1026.1 mb 0.00 in0.0 mm 0.00 in0.0 mm 0.00 in0.0 mm
06:33 PM 37.4°F3.0°C 32.7°F0.4°C 83% 1.6 mph S2.6 kmh S 2.2 mph3.5 kmh 30.30 in1026.1 mb 0.00 in0.0 mm 0.00 in0.0 mm 0.00 in0.0 mm
06:35 PM 37.4°F3.0°C 32.7°F0.4°C 83% 0.7 mph S1.1 kmh S 1.6 mph2.6 kmh 30.30 in1026.1 mb 0.00 in0.0 mm 0.00 in0.0 mm 0.00 in0.0 mm
06:37 PM 37.4°F3.0°C 32.7°F0.4°C 83% 0.7 mph S1.1 kmh S 1.6 mph2.6 kmh 30.30 in1026.1 mb 0.00 in0.0 mm 0.00 in0.0 mm 0.00 in0.0 mm
06:39 PM 37.2°F2.9°C 32.5°F0.3°C 83% 1.6 mph S2.6 kmh S 2.2 mph3.5 kmh 30.30 in1026.1 mb 0.00 in0.0 mm 0.00 in0.0 mm 0.00 in0.0 mm
06:41 PM 37.0°F2.8°C 32.4°F0.2°C 83% 0.7 mph E1.1 kmh E 2.2 mph3.5 kmh 30.30 in1026.1 mb 0.00 in0.0 mm 0.00 in0.0 mm 0.00 in0.0 mm
06:43 PM 36.9°F2.7°C 32.2°F0.1°C 83% 2.2 mph NE3.5 kmh NE 3.1 mph5.0 kmh 30.30 in1026.1 mb 0.00 in0.0 mm 0.00 in0.0 mm 0.00 in0.0 mm
06:45 PM 36.9°F2.7°C 31.9°F-0.1°C 82% 0.7 mph NE1.1 kmh NE 1.6 mph2.6 kmh 30.30 in1026.1 mb 0.00 in0.0 mm 0.00 in0.0 mm 0.00 in0.0 mm
06:47 PM 36.7°F2.6°C 31.7°F-0.2°C 82% 0.7 mph NE1.1 kmh NE 1.6 mph2.6 kmh 30.30 in1026.1 mb 0.00 in0.0 mm 0.00 in0.0 mm 0.00 in0.0 mm
06:49 PM 36.5°F2.5°C 31.5°F-0.3°C 82% Calm Calm 0.7 mph1.1 kmh 30.31 in1026.4 mb 0.00 in0.0 mm 0.00 in0.0 mm 0.00 in0.0 mm
06:51 PM 36.1°F2.3°C 31.2°F-0.4°C 82% 0.7 mph NE1.1 kmh NE 1.6 mph2.6 kmh 30.30 in1026.1 mb 0.00 in0.0 mm 0.00 in0.0 mm 0.00 in0.0 mm
06:53 PM 36.0°F2.2°C 31.0°F-0.6°C 82% Calm Calm -- 30.31 in1026.4 mb 0.00 in0.0 mm 0.00 in0.0 mm 0.00 in0.0 mm
06:55 PM 36.0°F2.2°C 31.0°F-0.6°C 82% 1.6 mph 2.6 kmh 2.2 mph3.5 kmh 30.30 in1026.1 mb 0.00 in0.0 mm 0.00 in0.0 mm 0.00 in0.0 mm
06:57 PM 36.1°F2.3°C 31.2°F-0.4°C 82% 2.2 mph NW3.5 kmh NW 3.1 mph5.0 kmh 30.30 in1026.1 mb 0.00 in0.0 mm 0.00 in0.0 mm 0.00 in0.0 mm
07:00 PM 36.0°F2.2°C 31.0°F-0.6°C 82% 2.2 mph NW3.5 kmh NW 3.8 mph6.1 kmh 30.31 in1026.4 mb 0.00 in0.0 mm 0.00 in0.0 mm 0.00 in0.0 mm
07:01 PM 36.1°F2.3°C 31.2°F-0.4°C 82% 3.8 mph NW6.1 kmh NW 3.8 mph6.1 kmh 30.31 in1026.4 mb 0.00 in0.0 mm 0.00 in0.0 mm 0.00 in0.0 mm
07:03 PM 36.0°F2.2°C 31.3°F-0.4°C 83% 3.8 mph NW6.1 kmh NW 4.5 mph7.2 kmh 30.31 in1026.4 mb 0.00 in0.0 mm 0.00 in0.0 mm 0.00 in0.0 mm
07:05 PM 36.1°F2.3°C 31.5°F-0.3°C 83% 3.1 mph NW5.0 kmh NW 4.5 mph7.2 kmh 30.31 in1026.4 mb 0.00 in0.0 mm 0.00 in0.0 mm 0.00 in0.0 mm
07:07 PM 36.1°F2.3°C 31.5°F-0.3°C 83% 1.6 mph NW2.6 kmh NW 2.2 mph3.5 kmh 30.31 in1026.4 mb 0.00 in0.0 mm 0.00 in0.0 mm 0.00 in0.0 mm
07:09 PM 36.1°F2.3°C 31.8°F-0.1°C 84% 1.6 mph NW2.6 kmh NW 2.2 mph3.5 kmh 30.31 in1026.4 mb 0.00 in0.0 mm 0.00 in0.0 mm 0.00 in0.0 mm
07:11 PM 36.1°F2.3°C 31.8°F-0.1°C 84% Calm Calm 0.7 mph1.1 kmh 30.31 in1026.4 mb 0.00 in0.0 mm 0.00 in0.0 mm 0.00 in0.0 mm
07:13 PM 36.1°F2.3°C 31.8°F-0.1°C 84% Calm Calm 0.7 mph1.1 kmh 30.31 in1026.4 mb 0.00 in0.0 mm 0.00 in0.0 mm 0.00 in0.0 mm
07:15 PM 36.1°F2.3°C 31.8°F-0.1°C 84% Calm Calm 0.7 mph1.1 kmh 30.32 in1026.8 mb 0.00 in0.0 mm 0.00 in0.0 mm 0.00 in0.0 mm
07:17 PM 36.1°F2.3°C 31.8°F-0.1°C 84% 0.7 mph NW1.1 kmh NW 0.7 mph1.1 kmh 30.32 in1026.8 mb 0.00 in0.0 mm 0.00 in0.0 mm 0.00 in0.0 mm
07:19 PM 36.1°F2.3°C 31.8°F-0.1°C 84% 0.7 mph NW1.1 kmh NW 1.6 mph2.6 kmh 30.31 in1026.4 mb 0.00 in0.0 mm 0.00 in0.0 mm 0.00 in0.0 mm
07:21 PM 36.1°F2.3°C 31.8°F-0.1°C 84% Calm Calm -- 30.31 in1026.4 mb 0.00 in0.0 mm 0.00 in0.0 mm 0.00 in0.0 mm
07:23 PM 36.0°F2.2°C 31.6°F-0.2°C 84% Calm Calm -- 30.32 in1026.8 mb 0.00 in0.0 mm 0.00 in0.0 mm 0.00 in0.0 mm
07:25 PM 35.6°F2.0°C 31.3°F-0.4°C 84% Calm Calm 0.7 mph1.1 kmh 30.31 in1026.4 mb 0.00 in0.0 mm 0.00 in0.0 mm 0.00 in0.0 mm
07:27 PM 35.2°F1.8°C 30.9°F-0.6°C 84% Calm Calm 0.7 mph1.1 kmh 30.31 in1026.4 mb 0.00 in0.0 mm 0.00 in0.0 mm 0.00 in0.0 mm
07:29 PM 35.2°F1.8°C 30.9°F-0.6°C 84% Calm Calm 0.7 mph1.1 kmh 30.31 in1026.4 mb 0.00 in0.0 mm 0.00 in0.0 mm 0.00 in0.0 mm
07:31 PM 35.1°F1.7°C 30.7°F-0.7°C 84% Calm Calm 0.7 mph1.1 kmh 30.31 in1026.4 mb 0.00 in0.0 mm 0.00 in0.0 mm 0.00 in0.0 mm
07:33 PM 35.1°F1.7°C 30.7°F-0.7°C 84% Calm Calm 0.7 mph1.1 kmh 30.32 in1026.8 mb 0.00 in0.0 mm 0.00 in0.0 mm 0.00 in0.0 mm
07:35 PM 35.1°F1.7°C 30.7°F-0.7°C 84% Calm Calm -- 30.32 in1026.8 mb 0.00 in0.0 mm 0.00 in0.0 mm 0.00 in0.0 mm
07:37 PM 35.1°F1.7°C 30.7°F-0.7°C 84% Calm Calm 0.7 mph1.1 kmh 30.32 in1026.8 mb 0.00 in0.0 mm 0.00 in0.0 mm 0.00 in0.0 mm
07:39 PM 35.2°F1.8°C 30.9°F-0.6°C 84% Calm Calm -- 30.32 in1026.8 mb 0.00 in0.0 mm 0.00 in0.0 mm 0.00 in0.0 mm
07:41 PM 35.2°F1.8°C 30.9°F-0.6°C 84% Calm Calm -- 30.32 in1026.8 mb 0.00 in0.0 mm 0.00 in0.0 mm 0.00 in0.0 mm
07:43 PM 35.2°F1.8°C 30.9°F-0.6°C 84% 0.7 mph NW1.1 kmh NW 1.6 mph2.6 kmh 30.32 in1026.8 mb 0.00 in0.0 mm 0.00 in0.0 mm 0.00 in0.0 mm
07:45 PM 35.2°F1.8°C 30.9°F-0.6°C 84% 0.7 mph NW1.1 kmh NW 1.6 mph2.6 kmh 30.33 in1027.1 mb 0.00 in0.0 mm 0.00 in0.0 mm 0.00 in0.0 mm
07:47 PM 35.2°F1.8°C 30.9°F-0.6°C 84% Calm Calm 0.7 mph1.1 kmh 30.32 in1026.8 mb 0.00 in0.0 mm 0.00 in0.0 mm 0.00 in0.0 mm
07:49 PM 35.2°F1.8°C 30.9°F-0.6°C 84% Calm Calm -- 30.33 in1027.1 mb 0.00 in0.0 mm 0.00 in0.0 mm 0.00 in0.0 mm
07:51 PM 35.1°F1.7°C 30.7°F-0.7°C 84% Calm Calm 0.7 mph1.1 kmh 30.32 in1026.8 mb 0.00 in0.0 mm 0.00 in0.0 mm 0.00 in0.0 mm
07:53 PM 34.9°F1.6°C 30.6°F-0.8°C 84% Calm Calm -- 30.33 in1027.1 mb 0.00 in0.0 mm 0.00 in0.0 mm 0.00 in0.0 mm
07:55 PM 34.7°F1.5°C 30.4°F-0.9°C 84% Calm Calm -- 30.32 in1026.8 mb 0.00 in0.0 mm 0.00 in0.0 mm 0.00 in0.0 mm
07:57 PM 34.5°F1.4°C 30.2°F-1.0°C 84% Calm Calm 0.7 mph1.1 kmh 30.32 in1026.8 mb 0.00 in0.0 mm 0.00 in0.0 mm 0.00 in0.0 mm
07:59 PM 34.5°F1.4°C 30.2°F-1.0°C 84% Calm Calm 0.7 mph1.1 kmh 30.33 in1027.1 mb 0.00 in0.0 mm 0.00 in0.0 mm 0.00 in0.0 mm
08:01 PM 34.5°F1.4°C 30.2°F-1.0°C 84% Calm Calm 0.7 mph1.1 kmh 30.32 in1026.8 mb 0.00 in0.0 mm 0.00 in0.0 mm 0.00 in0.0 mm
08:03 PM 34.5°F1.4°C 30.2°F-1.0°C 84% Calm Calm 0.7 mph1.1 kmh 30.32 in1026.8 mb 0.00 in0.0 mm 0.00 in0.0 mm 0.00 in0.0 mm
08:05 PM 34.5°F1.4°C 30.2°F-1.0°C 84% Calm Calm 0.7 mph1.1 kmh 30.32 in1026.8 mb 0.00 in0.0 mm 0.00 in0.0 mm 0.00 in0.0 mm
08:07 PM 34.0°F1.1°C 29.7°F-1.3°C 84% 0.7 mph NW1.1 kmh NW 1.6 mph2.6 kmh 30.32 in1026.8 mb 0.00 in0.0 mm 0.00 in0.0 mm 0.00 in0.0 mm
08:09 PM 34.0°F1.1°C 29.7°F-1.3°C 84% 0.7 mph NW1.1 kmh NW 1.6 mph2.6 kmh 30.32 in1026.8 mb 0.00 in0.0 mm 0.00 in0.0 mm 0.00 in0.0 mm
08:11 PM 33.8°F1.0°C 29.5°F-1.4°C 84% 1.6 mph NW2.6 kmh NW 2.2 mph3.5 kmh 30.33 in1027.1 mb 0.00 in0.0 mm 0.00 in0.0 mm 0.00 in0.0 mm
08:13 PM 33.8°F1.0°C 29.5°F-1.4°C 84% 1.6 mph NW2.6 kmh NW 2.2 mph3.5 kmh 30.33 in1027.1 mb 0.00 in0.0 mm 0.00 in0.0 mm 0.00 in0.0 mm
08:15 PM 33.8°F1.0°C 29.5°F-1.4°C 84% 1.6 mph NW2.6 kmh NW 2.2 mph3.5 kmh 30.33 in1027.1 mb 0.00 in0.0 mm 0.00 in0.0 mm 0.00 in0.0 mm
08:17 PM 33.6°F0.9°C 29.3°F-1.5°C 84% 0.7 mph NW1.1 kmh NW 1.6 mph2.6 kmh 30.32 in1026.8 mb 0.00 in0.0 mm 0.00 in0.0 mm 0.00 in0.0 mm
08:19 PM 33.6°F0.9°C 29.3°F-1.5°C 84% 0.7 mph NW1.1 kmh NW 1.6 mph2.6 kmh 30.33 in1027.1 mb 0.00 in0.0 mm 0.00 in0.0 mm 0.00 in0.0 mm
08:21 PM 33.6°F0.9°C 29.3°F-1.5°C 84% 0.7 mph NW1.1 kmh NW 1.6 mph2.6 kmh 30.33 in1027.1 mb 0.00 in0.0 mm 0.00 in0.0 mm 0.00 in0.0 mm
08:23 PM 33.4°F0.8°C 29.1°F-1.6°C 84% 0.7 mph NW1.1 kmh NW 1.6 mph2.6 kmh 30.33 in1027.1 mb 0.00 in0.0 mm 0.00 in0.0 mm 0.00 in0.0 mm
08:25 PM 33.4°F0.8°C 29.1°F-1.6°C 84% Calm Calm 0.7 mph1.1 kmh 30.33 in1027.1 mb 0.00 in0.0 mm 0.00 in0.0 mm 0.00 in0.0 mm
08:27 PM 33.4°F0.8°C 29.1°F-1.6°C 84% Calm Calm -- 30.34 in1027.4 mb 0.00 in0.0 mm 0.00 in0.0 mm 0.00 in0.0 mm
08:30 PM 33.4°F0.8°C 29.1°F-1.6°C 84% Calm Calm -- 30.33 in1027.1 mb 0.00 in0.0 mm 0.00 in0.0 mm 0.00 in0.0 mm
08:32 PM 33.4°F0.8°C 29.1°F-1.6°C 84% Calm Calm 0.7 mph1.1 kmh 30.33 in1027.1 mb 0.00 in0.0 mm 0.00 in0.0 mm 0.00 in0.0 mm
08:34 PM 33.3°F0.7°C 29.0°F-1.7°C 84% 0.7 mph NW1.1 kmh NW 1.6 mph2.6 kmh 30.34 in1027.4 mb 0.00 in0.0 mm 0.00 in0.0 mm 0.00 in0.0 mm
08:36 PM 33.3°F0.7°C 29.0°F-1.7°C 84% 0.7 mph NW1.1 kmh NW 1.6 mph2.6 kmh 30.34 in1027.4 mb 0.00 in0.0 mm 0.00 in0.0 mm 0.00 in0.0 mm
08:38 PM 33.1°F0.6°C 28.8°F-1.8°C 84% 1.6 mph NW2.6 kmh NW 2.2 mph3.5 kmh 30.34 in1027.4 mb 0.00 in0.0 mm 0.00 in0.0 mm 0.00 in0.0 mm
08:40 PM 33.1°F0.6°C 28.8°F-1.8°C 84% 0.7 mph WNW1.1 kmh WNW 1.6 mph2.6 kmh 30.34 in1027.4 mb 0.00 in0.0 mm 0.00 in0.0 mm 0.00 in0.0 mm
08:42 PM 32.9°F0.5°C 28.6°F-1.9°C 84% 0.7 mph WNW1.1 kmh WNW 1.6 mph2.6 kmh 30.34 in1027.4 mb 0.00 in0.0 mm 0.00 in0.0 mm 0.00 in0.0 mm
08:44 PM 32.7°F0.4°C 28.4°F-2.0°C 84% Calm Calm 0.7 mph1.1 kmh 30.34 in1027.4 mb 0.00 in0.0 mm 0.00 in0.0 mm 0.00 in0.0 mm
08:46 PM 32.7°F0.4°C 28.4°F-2.0°C 84% Calm Calm -- 30.34 in1027.4 mb 0.00 in0.0 mm 0.00 in0.0 mm 0.00 in0.0 mm
08:48 PM 33.1°F0.6°C 28.8°F-1.8°C 84% Calm Calm -- 30.34 in1027.4 mb 0.00 in0.0 mm 0.00 in0.0 mm 0.00 in0.0 mm
08:50 PM 33.3°F0.7°C 29.0°F-1.7°C 84% Calm Calm -- 30.34 in1027.4 mb 0.00 in0.0 mm 0.00 in0.0 mm 0.00 in0.0 mm
08:52 PM 33.4°F0.8°C 29.4°F-1.4°C 85% Calm Calm -- 30.34 in1027.4 mb 0.00 in0.0 mm 0.00 in0.0 mm 0.00 in0.0 mm
08:54 PM 33.6°F0.9°C 29.6°F-1.3°C 85% Calm Calm -- 30.34 in1027.4 mb 0.00 in0.0 mm 0.00 in0.0 mm 0.00 in0.0 mm
08:56 PM 33.4°F0.8°C 29.4°F-1.4°C 85% Calm Calm -- 30.34 in1027.4 mb 0.00 in0.0 mm 0.00 in0.0 mm 0.00 in0.0 mm
08:58 PM 33.4°F0.8°C 29.4°F-1.4°C 85% Calm Calm -- 30.35 in1027.8 mb 0.00 in0.0 mm 0.00 in0.0 mm 0.00 in0.0 mm
09:00 PM 33.3°F0.7°C 29.3°F-1.5°C 85% Calm Calm -- 30.34 in1027.4 mb 0.00 in0.0 mm 0.00 in0.0 mm 0.00 in0.0 mm
09:02 PM 33.1°F0.6°C 29.1°F-1.6°C 85% Calm Calm -- 30.34 in1027.4 mb 0.00 in0.0 mm 0.00 in0.0 mm 0.00 in0.0 mm
09:04 PM 33.1°F0.6°C 29.1°F-1.6°C 85% Calm Calm -- 30.34 in1027.4 mb 0.00 in0.0 mm 0.00 in0.0 mm 0.00 in0.0 mm
09:06 PM 32.9°F0.5°C 28.6°F-1.9°C 84% 0.7 mph WNW1.1 kmh WNW 1.6 mph2.6 kmh 30.34 in1027.4 mb 0.00 in0.0 mm 0.00 in0.0 mm 0.00 in0.0 mm
09:08 PM 32.9°F0.5°C 28.6°F-1.9°C 84% 0.7 mph WNW1.1 kmh WNW 1.6 mph2.6 kmh 30.35 in1027.8 mb 0.00 in0.0 mm 0.00 in0.0 mm 0.00 in0.0 mm
09:10 PM 32.9°F0.5°C 28.6°F-1.9°C 84% 0.7 mph WNW1.1 kmh WNW 1.6 mph2.6 kmh 30.35 in1027.8 mb 0.00 in0.0 mm 0.00 in0.0 mm 0.00 in0.0 mm
09:12 PM 32.9°F0.5°C 28.6°F-1.9°C 84% Calm Calm 0.7 mph1.1 kmh 30.35 in1027.8 mb 0.00 in0.0 mm 0.00 in0.0 mm 0.00 in0.0 mm
09:14 PM 32.7°F0.4°C 28.4°F-2.0°C 84% 0.7 mph WNW1.1 kmh WNW 1.6 mph2.6 kmh 30.35 in1027.8 mb 0.00 in0.0 mm 0.00 in0.0 mm 0.00 in0.0 mm
09:16 PM 32.5°F0.3°C 28.3°F-2.1°C 84% 0.7 mph WNW1.1 kmh WNW 1.6 mph2.6 kmh 30.35 in1027.8 mb 0.00 in0.0 mm 0.00 in0.0 mm 0.00 in0.0 mm
09:18 PM 32.5°F0.3°C 28.3°F-2.1°C 84% 1.6 mph WNW2.6 kmh WNW 2.2 mph3.5 kmh 30.35 in1027.8 mb 0.00 in0.0 mm 0.00 in0.0 mm 0.00 in0.0 mm
09:22 PM 32.2°F0.1°C 27.9°F-2.3°C 84% Calm Calm -- 30.35 in1027.8 mb 0.00 in0.0 mm 0.00 in0.0 mm 0.00 in0.0 mm
09:24 PM 32.2°F0.1°C 27.9°F-2.3°C 84% Calm Calm 0.7 mph1.1 kmh 30.35 in1027.8 mb 0.00 in0.0 mm 0.00 in0.0 mm 0.00 in0.0 mm
09:26 PM 32.2°F0.1°C 27.9°F-2.3°C 84% Calm Calm -- 30.35 in1027.8 mb 0.00 in0.0 mm 0.00 in0.0 mm 0.00 in0.0 mm
09:28 PM 32.0°F0.0°C 27.7°F-2.4°C 84% 0.7 mph NW1.1 kmh NW 1.6 mph2.6 kmh 30.36 in1028.1 mb 0.00 in0.0 mm 0.00 in0.0 mm 0.00 in0.0 mm
09:30 PM 31.8°F-0.1°C 27.6°F-2.4°C 84% 1.6 mph WNW2.6 kmh WNW 2.2 mph3.5 kmh 30.35 in1027.8 mb 0.00 in0.0 mm 0.00 in0.0 mm 0.00 in0.0 mm
09:32 PM 31.6°F-0.2°C 27.4°F-2.6°C 84% 1.6 mph W2.6 kmh W 2.2 mph3.5 kmh 30.35 in1027.8 mb 0.00 in0.0 mm 0.00 in0.0 mm 0.00 in0.0 mm
09:34 PM 31.6°F-0.2°C 27.4°F-2.6°C 84% 1.6 mph W2.6 kmh W 2.2 mph3.5 kmh 30.36 in1028.1 mb 0.00 in0.0 mm 0.00 in0.0 mm 0.00 in0.0 mm
09:36 PM 31.8°F-0.1°C 27.6°F-2.4°C 84% 0.7 mph W1.1 kmh W 1.6 mph2.6 kmh 30.35 in1027.8 mb 0.00 in0.0 mm 0.00 in0.0 mm 0.00 in0.0 mm
09:38 PM 31.8°F-0.1°C 27.6°F-2.4°C 84% 0.7 mph W1.1 kmh W 1.6 mph2.6 kmh 30.36 in1028.1 mb 0.00 in0.0 mm 0.00 in0.0 mm 0.00 in0.0 mm
09:40 PM 31.8°F-0.1°C 27.6°F-2.4°C 84% 0.7 mph W1.1 kmh W 1.6 mph2.6 kmh 30.36 in1028.1 mb 0.00 in0.0 mm 0.00 in0.0 mm 0.00 in0.0 mm
09:42 PM 31.8°F-0.1°C 27.6°F-2.4°C 84% 1.6 mph W2.6 kmh W 1.6 mph2.6 kmh 30.35 in1027.8 mb 0.00 in0.0 mm 0.00 in0.0 mm 0.00 in0.0 mm
09:44 PM 31.8°F-0.1°C 27.6°F-2.4°C 84% 1.6 mph W2.6 kmh W 2.2 mph3.5 kmh 30.35 in1027.8 mb 0.00 in0.0 mm 0.00 in0.0 mm 0.00 in0.0 mm
09:46 PM 31.6°F-0.2°C 27.4°F-2.6°C 84% 0.7 mph W1.1 kmh W 1.6 mph2.6 kmh 30.36 in1028.1 mb 0.00 in0.0 mm 0.00 in0.0 mm 0.00 in0.0 mm
09:48 PM 31.6°F-0.2°C 27.4°F-2.6°C 84% 1.6 mph W2.6 kmh W 2.2 mph3.5 kmh 30.35 in1027.8 mb 0.00 in0.0 mm 0.00 in0.0 mm 0.00 in0.0 mm
09:50 PM 31.6°F-0.2°C 27.4°F-2.6°C 84% 0.7 mph W1.1 kmh W 1.6 mph2.6 kmh 30.36 in1028.1 mb 0.00 in0.0 mm 0.00 in0.0 mm 0.00 in0.0 mm
09:52 PM 31.5°F-0.3°C 27.2°F-2.7°C 84% 1.6 mph W2.6 kmh W 2.2 mph3.5 kmh 30.36 in1028.1 mb 0.00 in0.0 mm 0.00 in0.0 mm 0.00 in0.0 mm
09:54 PM 31.5°F-0.3°C 27.2°F-2.7°C 84% Calm Calm 0.7 mph1.1 kmh 30.36 in1028.1 mb 0.00 in0.0 mm 0.00 in0.0 mm 0.00 in0.0 mm
09:56 PM 31.5°F-0.3°C 27.2°F-2.7°C 84% Calm Calm 0.7 mph1.1 kmh 30.36 in1028.1 mb 0.00 in0.0 mm 0.00 in0.0 mm 0.00 in0.0 mm
09:58 PM 31.5°F-0.3°C 27.2°F-2.7°C 84% 0.7 mph W1.1 kmh W 0.7 mph1.1 kmh 30.35 in1027.8 mb 0.00 in0.0 mm 0.00 in0.0 mm 0.00 in0.0 mm
10:00 PM 31.3°F-0.4°C 27.0°F-2.8°C 84% Calm Calm 0.7 mph1.1 kmh 30.35 in1027.8 mb 0.00 in0.0 mm 0.00 in0.0 mm 0.00 in0.0 mm
10:02 PM 31.3°F-0.4°C 27.0°F-2.8°C 84% Calm Calm 0.7 mph1.1 kmh 30.36 in1028.1 mb 0.00 in0.0 mm 0.00 in0.0 mm 0.00 in0.0 mm
10:04 PM 31.1°F-0.5°C 26.8°F-2.9°C 84% Calm Calm -- 30.36 in1028.1 mb 0.00 in0.0 mm 0.00 in0.0 mm 0.00 in0.0 mm
10:06 PM 30.9°F-0.6°C 26.7°F-2.9°C 84% Calm Calm -- 30.36 in1028.1 mb 0.00 in0.0 mm 0.00 in0.0 mm 0.00 in0.0 mm
10:08 PM 30.9°F-0.6°C 26.7°F-2.9°C 84% 0.7 mph W1.1 kmh W 1.6 mph2.6 kmh 30.35 in1027.8 mb 0.00 in0.0 mm 0.00 in0.0 mm 0.00 in0.0 mm
10:10 PM 30.9°F-0.6°C 26.7°F-2.9°C 84% 1.6 mph W2.6 kmh W 2.2 mph3.5 kmh 30.36 in1028.1 mb 0.00 in0.0 mm 0.00 in0.0 mm 0.00 in0.0 mm
10:12 PM 30.9°F-0.6°C 26.7°F-2.9°C 84% 1.6 mph W2.6 kmh W 2.2 mph3.5 kmh 30.35 in1027.8 mb 0.00 in0.0 mm 0.00 in0.0 mm 0.00 in0.0 mm
10:14 PM 30.9°F-0.6°C 26.7°F-2.9°C 84% 2.2 mph W3.5 kmh W 2.2 mph3.5 kmh 30.35 in1027.8 mb 0.00 in0.0 mm 0.00 in0.0 mm 0.00 in0.0 mm
10:16 PM 30.7°F-0.7°C 26.5°F-3.1°C 84% 1.6 mph W2.6 kmh W 1.6 mph2.6 kmh 30.35 in1027.8 mb 0.00 in0.0 mm 0.00 in0.0 mm 0.00 in0.0 mm
10:18 PM 30.7°F-0.7°C 26.5°F-3.1°C 84% 2.2 mph W3.5 kmh W 2.2 mph3.5 kmh 30.35 in1027.8 mb 0.00 in0.0 mm 0.00 in0.0 mm 0.00 in0.0 mm
10:20 PM 30.7°F-0.7°C 26.5°F-3.1°C 84% 1.6 mph W2.6 kmh W 2.2 mph3.5 kmh 30.36 in1028.1 mb 0.00 in0.0 mm 0.00 in0.0 mm 0.00 in0.0 mm
10:22 PM 30.7°F-0.7°C 26.5°F-3.1°C 84% 0.7 mph W1.1 kmh W 1.6 mph2.6 kmh 30.35 in1027.8 mb 0.00 in0.0 mm 0.00 in0.0 mm 0.00 in0.0 mm
10:24 PM 31.1°F-0.5°C 27.1°F-2.7°C 85% 1.6 mph W2.6 kmh W 2.2 mph3.5 kmh 30.35 in1027.8 mb 0.00 in0.0 mm 0.00 in0.0 mm 0.00 in0.0 mm
10:26 PM 31.1°F-0.5°C 27.1°F-2.7°C 85% 1.6 mph W2.6 kmh W 2.2 mph3.5 kmh 30.35 in1027.8 mb 0.00 in0.0 mm 0.00 in0.0 mm 0.00 in0.0 mm
10:28 PM 31.3°F-0.4°C 27.3°F-2.6°C 85% 1.6 mph W2.6 kmh W 2.2 mph3.5 kmh 30.36 in1028.1 mb 0.00 in0.0 mm 0.00 in0.0 mm 0.00 in0.0 mm
10:30 PM 31.3°F-0.4°C 27.3°F-2.6°C 85% 2.2 mph W3.5 kmh W 3.1 mph5.0 kmh 30.36 in1028.1 mb 0.00 in0.0 mm 0.00 in0.0 mm 0.00 in0.0 mm
10:32 PM 31.3°F-0.4°C 27.3°F-2.6°C 85% 1.6 mph W2.6 kmh W 2.2 mph3.5 kmh 30.35 in1027.8 mb 0.00 in0.0 mm 0.00 in0.0 mm 0.00 in0.0 mm
10:34 PM 31.5°F-0.3°C 27.5°F-2.5°C 85% Calm Calm 0.7 mph1.1 kmh 30.36 in1028.1 mb 0.00 in0.0 mm 0.00 in0.0 mm 0.00 in0.0 mm
10:36 PM 31.3°F-0.4°C 27.3°F-2.6°C 85% 0.7 mph W1.1 kmh W 1.6 mph2.6 kmh 30.36 in1028.1 mb 0.00 in0.0 mm 0.00 in0.0 mm 0.00 in0.0 mm
10:38 PM 31.3°F-0.4°C 27.3°F-2.6°C 85% 1.6 mph W2.6 kmh W 2.2 mph3.5 kmh 30.35 in1027.8 mb 0.00 in0.0 mm 0.00 in0.0 mm 0.00 in0.0 mm
10:40 PM 31.1°F-0.5°C 27.1°F-2.7°C 85% 1.6 mph W2.6 kmh W 2.2 mph3.5 kmh 30.36 in1028.1 mb 0.00 in0.0 mm 0.00 in0.0 mm 0.00 in0.0 mm
10:42 PM 30.9°F-0.6°C 27.0°F-2.8°C 85% 1.6 mph W2.6 kmh W 2.2 mph3.5 kmh 30.36 in1028.1 mb 0.00 in0.0 mm 0.00 in0.0 mm 0.00 in0.0 mm
10:44 PM 30.9°F-0.6°C 27.0°F-2.8°C 85% 1.6 mph W2.6 kmh W 2.2 mph3.5 kmh 30.35 in1027.8 mb 0.00 in0.0 mm 0.00 in0.0 mm 0.00 in0.0 mm
10:46 PM 30.9°F-0.6°C 27.0°F-2.8°C 85% 1.6 mph W2.6 kmh W 2.2 mph3.5 kmh 30.35 in1027.8 mb 0.00 in0.0 mm 0.00 in0.0 mm 0.00 in0.0 mm
10:48 PM 30.9°F-0.6°C 27.0°F-2.8°C 85% 0.7 mph W1.1 kmh W 1.6 mph2.6 kmh 30.36 in1028.1 mb 0.00 in0.0 mm 0.00 in0.0 mm 0.00 in0.0 mm
10:50 PM 30.9°F-0.6°C 27.0°F-2.8°C 85% 0.7 mph W1.1 kmh W 1.6 mph2.6 kmh 30.35 in1027.8 mb 0.00 in0.0 mm 0.00 in0.0 mm 0.00 in0.0 mm
10:52 PM 31.1°F-0.5°C 27.1°F-2.7°C 85% 0.7 mph W1.1 kmh W 1.6 mph2.6 kmh 30.36 in1028.1 mb 0.00 in0.0 mm 0.00 in0.0 mm 0.00 in0.0 mm
10:54 PM 31.1°F-0.5°C 27.1°F-2.7°C 85% 0.7 mph W1.1 kmh W 1.6 mph2.6 kmh 30.36 in1028.1 mb 0.00 in0.0 mm 0.00 in0.0 mm 0.00 in0.0 mm
10:56 PM 31.3°F-0.4°C 27.3°F-2.6°C 85% 0.7 mph W1.1 kmh W 1.6 mph2.6 kmh 30.35 in1027.8 mb 0.00 in0.0 mm 0.00 in0.0 mm 0.00 in0.0 mm
10:58 PM 31.3°F-0.4°C 27.3°F-2.6°C 85% 0.7 mph W1.1 kmh W 1.6 mph2.6 kmh 30.36 in1028.1 mb 0.00 in0.0 mm 0.00 in0.0 mm 0.00 in0.0 mm
11:00 PM 31.3°F-0.4°C 27.3°F-2.6°C 85% Calm Calm 0.7 mph1.1 kmh 30.36 in1028.1 mb 0.00 in0.0 mm 0.00 in0.0 mm 0.00 in0.0 mm
11:02 PM 31.1°F-0.5°C 27.1°F-2.7°C 85% 0.7 mph W1.1 kmh W 1.6 mph2.6 kmh 30.36 in1028.1 mb 0.00 in0.0 mm 0.00 in0.0 mm 0.00 in0.0 mm
11:04 PM 30.9°F-0.6°C 27.0°F-2.8°C 85% 0.7 mph W1.1 kmh W 1.6 mph2.6 kmh 30.36 in1028.1 mb 0.00 in0.0 mm 0.00 in0.0 mm 0.00 in0.0 mm
11:06 PM 30.7°F-0.7°C 26.8°F-2.9°C 85% Calm Calm -- 30.36 in1028.1 mb 0.00 in0.0 mm 0.00 in0.0 mm 0.00 in0.0 mm
11:08 PM 30.7°F-0.7°C 26.8°F-2.9°C 85% Calm Calm -- 30.35 in1027.8 mb 0.00 in0.0 mm 0.00 in0.0 mm 0.00 in0.0 mm
11:10 PM 30.7°F-0.7°C 26.8°F-2.9°C 85% 0.7 mph W1.1 kmh W 0.7 mph1.1 kmh 30.36 in1028.1 mb 0.00 in0.0 mm 0.00 in0.0 mm 0.00 in0.0 mm
11:12 PM 30.6°F-0.8°C 26.6°F-3.0°C 85% 0.7 mph W1.1 kmh W 1.6 mph2.6 kmh 30.36 in1028.1 mb 0.00 in0.0 mm 0.00 in0.0 mm 0.00 in0.0 mm
11:14 PM 30.4°F-0.9°C 26.4°F-3.1°C 85% 0.7 mph W1.1 kmh W 1.6 mph2.6 kmh 30.35 in1027.8 mb 0.00 in0.0 mm 0.00 in0.0 mm 0.00 in0.0 mm
11:16 PM 30.4°F-0.9°C 26.4°F-3.1°C 85% 0.7 mph W1.1 kmh W 1.6 mph2.6 kmh 30.36 in1028.1 mb 0.00 in0.0 mm 0.00 in0.0 mm 0.00 in0.0 mm
11:18 PM 30.6°F-0.8°C 26.6°F-3.0°C 85% 1.6 mph W2.6 kmh W 2.2 mph3.5 kmh 30.36 in1028.1 mb 0.00 in0.0 mm 0.00 in0.0 mm 0.00 in0.0 mm
11:20 PM 30.7°F-0.7°C 26.8°F-2.9°C 85% 1.6 mph W2.6 kmh W 1.6 mph2.6 kmh 30.36 in1028.1 mb 0.00 in0.0 mm 0.00 in0.0 mm 0.00 in0.0 mm
11:22 PM 30.7°F-0.7°C 26.8°F-2.9°C 85% Calm Calm -- 30.36 in1028.1 mb 0.00 in0.0 mm 0.00 in0.0 mm 0.00 in0.0 mm
11:24 PM 30.9°F-0.6°C 27.0°F-2.8°C 85% Calm Calm -- 30.36 in1028.1 mb 0.00 in0.0 mm 0.00 in0.0 mm 0.00 in0.0 mm
11:26 PM 30.9°F-0.6°C 27.0°F-2.8°C 85% Calm Calm -- 30.36 in1028.1 mb 0.00 in0.0 mm 0.00 in0.0 mm 0.00 in0.0 mm
11:28 PM 30.7°F-0.7°C 26.8°F-2.9°C 85% 0.7 mph W1.1 kmh W 2.2 mph3.5 kmh 30.37 in1028.4 mb 0.00 in0.0 mm 0.00 in0.0 mm 0.00 in0.0 mm
11:31 PM 30.7°F-0.7°C 26.8°F-2.9°C 85% 0.7 mph W1.1 kmh W 1.6 mph2.6 kmh 30.37 in1028.4 mb 0.00 in0.0 mm 0.00 in0.0 mm 0.00 in0.0 mm
11:32 PM 30.7°F-0.7°C 26.8°F-2.9°C 85% 1.6 mph W2.6 kmh W 2.2 mph3.5 kmh 30.36 in1028.1 mb 0.00 in0.0 mm 0.00 in0.0 mm 0.00 in0.0 mm
11:34 PM 30.7°F-0.7°C 26.8°F-2.9°C 85% Calm Calm -- 30.36 in1028.1 mb 0.00 in0.0 mm 0.00 in0.0 mm 0.00 in0.0 mm
11:36 PM 30.6°F-0.8°C 26.6°F-3.0°C 85% Calm Calm -- 30.36 in1028.1 mb 0.00 in0.0 mm 0.00 in0.0 mm 0.00 in0.0 mm
11:39 PM 30.6°F-0.8°C 26.6°F-3.0°C 85% 0.7 mph W1.1 kmh W 1.6 mph2.6 kmh 30.36 in1028.1 mb 0.00 in0.0 mm 0.00 in0.0 mm 0.00 in0.0 mm
11:41 PM 30.4°F-0.9°C 26.4°F-3.1°C 85% Calm Calm 0.7 mph1.1 kmh 30.37 in1028.4 mb 0.00 in0.0 mm 0.00 in0.0 mm 0.00 in0.0 mm
11:43 PM 30.2°F-1.0°C 26.2°F-3.2°C 85% Calm Calm -- 30.36 in1028.1 mb 0.00 in0.0 mm 0.00 in0.0 mm 0.00 in0.0 mm
11:45 PM 30.0°F-1.1°C 26.1°F-3.3°C 85% Calm Calm 0.7 mph1.1 kmh 30.36 in1028.1 mb 0.00 in0.0 mm 0.00 in0.0 mm 0.00 in0.0 mm
11:47 PM 29.8°F-1.2°C 25.9°F-3.4°C 85% Calm Calm -- 30.37 in1028.4 mb 0.00 in0.0 mm 0.00 in0.0 mm 0.00 in0.0 mm
11:49 PM 29.8°F-1.2°C 25.9°F-3.4°C 85% Calm Calm 0.7 mph1.1 kmh 30.37 in1028.4 mb 0.00 in0.0 mm 0.00 in0.0 mm 0.00 in0.0 mm
11:51 PM 30.0°F-1.1°C 26.1°F-3.3°C 85% 0.7 mph W1.1 kmh W 1.6 mph2.6 kmh 30.37 in1028.4 mb 0.00 in0.0 mm 0.00 in0.0 mm 0.00 in0.0 mm
11:53 PM 30.0°F-1.1°C 26.1°F-3.3°C 85% Calm Calm 0.7 mph1.1 kmh 30.37 in1028.4 mb 0.00 in0.0 mm 0.00 in0.0 mm 0.00 in0.0 mm
11:55 PM 30.2°F-1.0°C 26.2°F-3.2°C 85% Calm Calm 0.7 mph1.1 kmh 30.37 in1028.4 mb 0.00 in0.0 mm 0.00 in0.0 mm 0.00 in0.0 mm
11:57 PM 30.2°F-1.0°C 26.2°F-3.2°C 85% 0.7 mph W1.1 kmh W 0.7 mph1.1 kmh 30.37 in1028.4 mb 0.00 in0.0 mm 0.00 in0.0 mm 0.00 in0.0 mm
11:59 PM 30.0°F-1.1°C 26.1°F-3.3°C 85% 0.7 mph W1.1 kmh W 1.6 mph2.6 kmh 30.37 in1028.4 mb 0.00 in0.0 mm 0.00 in0.0 mm 0.00 in0.0 mm